sensor_id;sensor_type;location;lat;lon;timestamp;temperature;humidity
3198;DHT22;1611;49.394;11.136;2022-12-18T00:00:11;-8.30;55.40
3198;DHT22;1611;49.394;11.136;2022-12-18T00:02:38;-8.30;55.10
3198;DHT22;1611;49.394;11.136;2022-12-18T00:05:07;-8.40;54.40
3198;DHT22;1611;49.394;11.136;2022-12-18T00:07:35;-8.30;54.70
3198;DHT22;1611;49.394;11.136;2022-12-18T00:10:02;-8.40;55.00
3198;DHT22;1611;49.394;11.136;2022-12-18T00:12:29;-8.40;55.70
3198;DHT22;1611;49.394;11.136;2022-12-18T00:14:56;-8.30;55.70
3198;DHT22;1611;49.394;11.136;2022-12-18T00:17:23;-8.20;55.90
3198;DHT22;1611;49.394;11.136;2022-12-18T00:19:50;-8.20;55.10
3198;DHT22;1611;49.394;11.136;2022-12-18T00:22:18;-8.20;54.50
3198;DHT22;1611;49.394;11.136;2022-12-18T00:24:45;-8.20;54.30
3198;DHT22;1611;49.394;11.136;2022-12-18T00:27:11;-8.30;54.50
3198;DHT22;1611;49.394;11.136;2022-12-18T00:29:38;-8.20;53.60
3198;DHT22;1611;49.394;11.136;2022-12-18T00:32:05;-8.30;53.10
3198;DHT22;1611;49.394;11.136;2022-12-18T00:34:32;-8.40;53.30
3198;DHT22;1611;49.394;11.136;2022-12-18T00:36:58;-8.50;53.70
3198;DHT22;1611;49.394;11.136;2022-12-18T00:39:26;-8.50;54.80
3198;DHT22;1611;49.394;11.136;2022-12-18T00:41:53;-8.50;54.70
3198;DHT22;1611;49.394;11.136;2022-12-18T00:44:38;-8.60;54.40
3198;DHT22;1611;49.394;11.136;2022-12-18T00:47:05;-8.60;53.90
3198;DHT22;1611;49.394;11.136;2022-12-18T00:49:31;-8.70;53.40
3198;DHT22;1611;49.394;11.136;2022-12-18T00:51:58;-8.70;53.60
3198;DHT22;1611;49.394;11.136;2022-12-18T00:54:26;-8.70;53.90
3198;DHT22;1611;49.394;11.136;2022-12-18T00:56:53;-8.80;54.00
3198;DHT22;1611;49.394;11.136;2022-12-18T00:59:20;-8.80;54.40
3198;DHT22;1611;49.394;11.136;2022-12-18T01:01:47;-8.80;55.20
3198;DHT22;1611;49.394;11.136;2022-12-18T01:04:14;-8.90;54.40
3198;DHT22;1611;49.394;11.136;2022-12-18T01:06:41;-8.80;54.50
3198;DHT22;1611;49.394;11.136;2022-12-18T01:09:08;-8.90;53.60
3198;DHT22;1611;49.394;11.136;2022-12-18T01:11:36;-8.90;53.20
3198;DHT22;1611;49.394;11.136;2022-12-18T01:14:03;-9.00;53.60
3198;DHT22;1611;49.394;11.136;2022-12-18T01:16:30;-9.00;54.60
3198;DHT22;1611;49.394;11.136;2022-12-18T01:18:57;-9.00;55.60
3198;DHT22;1611;49.394;11.136;2022-12-18T01:21:24;-8.90;56.50
3198;DHT22;1611;49.394;11.136;2022-12-18T01:23:52;-8.90;57.30
3198;DHT22;1611;49.394;11.136;2022-12-18T01:26:19;-8.80;57.90
3198;DHT22;1611;49.394;11.136;2022-12-18T01:28:47;-8.80;58.50
3198;DHT22;1611;49.394;11.136;2022-12-18T01:31:19;-8.80;59.00
3198;DHT22;1611;49.394;11.136;2022-12-18T01:33:46;-8.90;59.50
3198;DHT22;1611;49.394;11.136;2022-12-18T01:36:18;-8.80;59.80
3198;DHT22;1611;49.394;11.136;2022-12-18T01:38:46;-8.70;59.90
3198;DHT22;1611;49.394;11.136;2022-12-18T01:41:14;-8.70;59.60
3198;DHT22;1611;49.394;11.136;2022-12-18T01:43:45;-8.70;59.40
3198;DHT22;1611;49.394;11.136;2022-12-18T01:46:13;-8.60;59.60
3198;DHT22;1611;49.394;11.136;2022-12-18T01:48:40;-8.60;59.40
3198;DHT22;1611;49.394;11.136;2022-12-18T01:51:09;-8.60;59.30
3198;DHT22;1611;49.394;11.136;2022-12-18T01:53:37;-8.50;59.70
3198;DHT22;1611;49.394;11.136;2022-12-18T01:56:06;-8.40;58.60
3198;DHT22;1611;49.394;11.136;2022-12-18T01:58:38;-8.40;57.50
3198;DHT22;1611;49.394;11.136;2022-12-18T02:01:06;-8.40;56.80
3198;DHT22;1611;49.394;11.136;2022-12-18T02:03:34;-8.40;57.20
3198;DHT22;1611;49.394;11.136;2022-12-18T02:06:07;-8.40;58.10
3198;DHT22;1611;49.394;11.136;2022-12-18T02:08:42;-8.30;58.50
3198;DHT22;1611;49.394;11.136;2022-12-18T02:11:18;-8.30;58.60
3198;DHT22;1611;49.394;11.136;2022-12-18T02:13:55;-8.10;59.00
3198;DHT22;1611;49.394;11.136;2022-12-18T02:16:29;-8.00;59.70
3198;DHT22;1611;49.394;11.136;2022-12-18T02:19:04;-7.90;60.20
3198;DHT22;1611;49.394;11.136;2022-12-18T02:21:40;-7.70;60.60
3198;DHT22;1611;49.394;11.136;2022-12-18T02:24:21;-7.50;60.90
3198;DHT22;1611;49.394;11.136;2022-12-18T02:26:55;-7.40;61.70
3198;DHT22;1611;49.394;11.136;2022-12-18T02:29:25;-7.30;62.20
3198;DHT22;1611;49.394;11.136;2022-12-18T02:31:56;-7.20;60.90
3198;DHT22;1611;49.394;11.136;2022-12-18T02:34:28;-7.10;61.10
3198;DHT22;1611;49.394;11.136;2022-12-18T02:36:57;-7.00;61.80
3198;DHT22;1611;49.394;11.136;2022-12-18T02:39:26;-6.90;63.10
3198;DHT22;1611;49.394;11.136;2022-12-18T02:41:56;-6.70;63.50
3198;DHT22;1611;49.394;11.136;2022-12-18T02:44:24;-6.70;63.50
3198;DHT22;1611;49.394;11.136;2022-12-18T02:46:52;-6.50;63.80
3198;DHT22;1611;49.394;11.136;2022-12-18T02:49:31;-6.40;63.50
3198;DHT22;1611;49.394;11.136;2022-12-18T02:52:06;-6.30;63.80
3198;DHT22;1611;49.394;11.136;2022-12-18T02:54:44;-6.20;64.20
3198;DHT22;1611;49.394;11.136;2022-12-18T02:57:19;-6.10;64.80
3198;DHT22;1611;49.394;11.136;2022-12-18T02:59:56;-6.00;65.00
3198;DHT22;1611;49.394;11.136;2022-12-18T03:02:29;-5.80;65.10
3198;DHT22;1611;49.394;11.136;2022-12-18T03:05:03;-5.70;64.20
3198;DHT22;1611;49.394;11.136;2022-12-18T03:07:36;-5.50;64.20
3198;DHT22;1611;49.394;11.136;2022-12-18T03:10:07;-5.40;62.90
3198;DHT22;1611;49.394;11.136;2022-12-18T03:12:40;-5.30;61.70
3198;DHT22;1611;49.394;11.136;2022-12-18T03:15:10;-5.30;61.30
3198;DHT22;1611;49.394;11.136;2022-12-18T03:17:42;-5.30;60.30
3198;DHT22;1611;49.394;11.136;2022-12-18T03:20:14;-5.20;60.00
3198;DHT22;1611;49.394;11.136;2022-12-18T03:22:43;-5.20;59.80
3198;DHT22;1611;49.394;11.136;2022-12-18T03:25:13;-5.20;59.10
3198;DHT22;1611;49.394;11.136;2022-12-18T03:27:46;-5.20;59.10
3198;DHT22;1611;49.394;11.136;2022-12-18T03:30:15;-5.20;59.00
3198;DHT22;1611;49.394;11.136;2022-12-18T03:32:46;-5.20;58.80
3198;DHT22;1611;49.394;11.136;2022-12-18T03:35:16;-5.40;59.00
3198;DHT22;1611;49.394;11.136;2022-12-18T03:37:45;-5.40;59.40
3198;DHT22;1611;49.394;11.136;2022-12-18T03:40:11;-5.30;59.30
3198;DHT22;1611;49.394;11.136;2022-12-18T03:42:45;-5.30;58.30
3198;DHT22;1611;49.394;11.136;2022-12-18T03:45:19;-5.30;58.10
3198;DHT22;1611;49.394;11.136;2022-12-18T03:47:55;-5.30;58.10
3198;DHT22;1611;49.394;11.136;2022-12-18T03:50:29;-5.40;57.80
3198;DHT22;1611;49.394;11.136;2022-12-18T03:53:04;-5.40;58.20
3198;DHT22;1611;49.394;11.136;2022-12-18T03:55:36;-5.40;58.50
3198;DHT22;1611;49.394;11.136;2022-12-18T03:58:07;-5.40;58.10
3198;DHT22;1611;49.394;11.136;2022-12-18T04:00:35;-5.40;58.10
3198;DHT22;1611;49.394;11.136;2022-12-18T04:03:02;-5.30;58.10
3198;DHT22;1611;49.394;11.136;2022-12-18T04:05:34;-5.40;58.10
3198;DHT22;1611;49.394;11.136;2022-12-18T04:08:03;-5.30;58.00
3198;DHT22;1611;49.394;11.136;2022-12-18T04:10:30;-5.30;59.00
3198;DHT22;1611;49.394;11.136;2022-12-18T04:12:58;-5.30;58.00
3198;DHT22;1611;49.394;11.136;2022-12-18T04:15:26;-5.30;58.10
3198;DHT22;1611;49.394;11.136;2022-12-18T04:17:53;-5.30;58.00
3198;DHT22;1611;49.394;11.136;2022-12-18T04:20:20;-5.30;58.20
3198;DHT22;1611;49.394;11.136;2022-12-18T04:22:47;-5.30;58.30
3198;DHT22;1611;49.394;11.136;2022-12-18T04:25:14;-5.30;58.50
3198;DHT22;1611;49.394;11.136;2022-12-18T04:27:41;-5.30;58.90
3198;DHT22;1611;49.394;11.136;2022-12-18T04:30:08;-5.20;58.50
3198;DHT22;1611;49.394;11.136;2022-12-18T04:32:36;-5.20;58.40
3198;DHT22;1611;49.394;11.136;2022-12-18T04:35:04;-5.20;58.70
3198;DHT22;1611;49.394;11.136;2022-12-18T04:37:33;-5.20;59.10
3198;DHT22;1611;49.394;11.136;2022-12-18T04:40:00;-5.20;59.30
3198;DHT22;1611;49.394;11.136;2022-12-18T04:42:27;-5.10;59.60
3198;DHT22;1611;49.394;11.136;2022-12-18T04:44:54;-5.10;59.70
3198;DHT22;1611;49.394;11.136;2022-12-18T04:47:20;-5.00;59.30
3198;DHT22;1611;49.394;11.136;2022-12-18T04:49:48;-4.90;58.60
3198;DHT22;1611;49.394;11.136;2022-12-18T04:52:15;-4.80;58.50
3198;DHT22;1611;49.394;11.136;2022-12-18T04:54:42;-4.90;58.90
3198;DHT22;1611;49.394;11.136;2022-12-18T04:57:09;-4.90;59.00
3198;DHT22;1611;49.394;11.136;2022-12-18T04:59:36;-4.90;59.20
3198;DHT22;1611;49.394;11.136;2022-12-18T05:02:02;-4.90;59.40
3198;DHT22;1611;49.394;11.136;2022-12-18T05:04:29;-4.80;59.20
3198;DHT22;1611;49.394;11.136;2022-12-18T05:06:57;-4.90;59.90
3198;DHT22;1611;49.394;11.136;2022-12-18T05:09:24;-4.70;59.70
3198;DHT22;1611;49.394;11.136;2022-12-18T05:11:51;-4.70;59.30
3198;DHT22;1611;49.394;11.136;2022-12-18T05:14:18;-4.60;58.70
3198;DHT22;1611;49.394;11.136;2022-12-18T05:16:45;-4.60;58.80
3198;DHT22;1611;49.394;11.136;2022-12-18T05:19:11;-4.60;58.90
3198;DHT22;1611;49.394;11.136;2022-12-18T05:21:38;-4.50;59.10
3198;DHT22;1611;49.394;11.136;2022-12-18T05:24:06;-4.50;58.40
3198;DHT22;1611;49.394;11.136;2022-12-18T05:26:33;-4.50;58.50
3198;DHT22;1611;49.394;11.136;2022-12-18T05:29:00;-4.60;59.40
3198;DHT22;1611;49.394;11.136;2022-12-18T05:31:27;-4.60;58.90
3198;DHT22;1611;49.394;11.136;2022-12-18T05:33:53;-4.60;59.40
3198;DHT22;1611;49.394;11.136;2022-12-18T05:36:20;-4.50;59.90
3198;DHT22;1611;49.394;11.136;2022-12-18T05:38:47;-4.50;59.70
3198;DHT22;1611;49.394;11.136;2022-12-18T05:41:15;-4.50;59.80
3198;DHT22;1611;49.394;11.136;2022-12-18T05:43:42;-4.40;59.80
3198;DHT22;1611;49.394;11.136;2022-12-18T05:46:12;-4.50;60.80
3198;DHT22;1611;49.394;11.136;2022-12-18T05:48:39;-4.50;61.00
3198;DHT22;1611;49.394;11.136;2022-12-18T05:51:08;-4.40;61.90
3198;DHT22;1611;49.394;11.136;2022-12-18T05:53:36;-4.50;61.20
3198;DHT22;1611;49.394;11.136;2022-12-18T05:56:05;-4.40;62.50
3198;DHT22;1611;49.394;11.136;2022-12-18T05:58:33;-4.40;61.90
3198;DHT22;1611;49.394;11.136;2022-12-18T06:01:07;-4.30;62.10
3198;DHT22;1611;49.394;11.136;2022-12-18T06:03:35;-4.30;61.50
3198;DHT22;1611;49.394;11.136;2022-12-18T06:06:02;-4.30;62.10
3198;DHT22;1611;49.394;11.136;2022-12-18T06:08:29;-4.20;62.20
3198;DHT22;1611;49.394;11.136;2022-12-18T06:10:56;-4.20;62.00
3198;DHT22;1611;49.394;11.136;2022-12-18T06:13:22;-4.10;62.40
3198;DHT22;1611;49.394;11.136;2022-12-18T06:15:50;-4.00;63.20
3198;DHT22;1611;49.394;11.136;2022-12-18T06:18:17;-4.00;62.00
3198;DHT22;1611;49.394;11.136;2022-12-18T06:20:44;-4.00;62.10
3198;DHT22;1611;49.394;11.136;2022-12-18T06:23:11;-3.90;62.30
3198;DHT22;1611;49.394;11.136;2022-12-18T06:25:38;-3.90;62.60
3198;DHT22;1611;49.394;11.136;2022-12-18T06:28:05;-3.80;62.70
3198;DHT22;1611;49.394;11.136;2022-12-18T06:30:32;-3.80;62.40
3198;DHT22;1611;49.394;11.136;2022-12-18T06:33:00;-3.70;62.90
3198;DHT22;1611;49.394;11.136;2022-12-18T06:35:27;-3.70;61.80
3198;DHT22;1611;49.394;11.136;2022-12-18T06:37:54;-3.80;61.60
3198;DHT22;1611;49.394;11.136;2022-12-18T06:40:21;-3.90;62.60
3198;DHT22;1611;49.394;11.136;2022-12-18T06:42:48;-3.70;63.60
3198;DHT22;1611;49.394;11.136;2022-12-18T06:45:14;-3.70;63.70
3198;DHT22;1611;49.394;11.136;2022-12-18T06:47:41;-3.70;63.90
3198;DHT22;1611;49.394;11.136;2022-12-18T06:50:09;-3.60;64.10
3198;DHT22;1611;49.394;11.136;2022-12-18T06:52:36;-3.50;64.50
3198;DHT22;1611;49.394;11.136;2022-12-18T06:55:05;-3.50;64.00
3198;DHT22;1611;49.394;11.136;2022-12-18T06:57:33;-3.30;63.90
3198;DHT22;1611;49.394;11.136;2022-12-18T07:00:00;-3.30;63.60
3198;DHT22;1611;49.394;11.136;2022-12-18T07:02:28;-3.30;63.60
3198;DHT22;1611;49.394;11.136;2022-12-18T07:04:55;-3.30;63.10
3198;DHT22;1611;49.394;11.136;2022-12-18T07:07:23;-3.30;63.80
3198;DHT22;1611;49.394;11.136;2022-12-18T07:09:50;-3.30;64.40
3198;DHT22;1611;49.394;11.136;2022-12-18T07:12:17;-3.40;65.20
3198;DHT22;1611;49.394;11.136;2022-12-18T07:14:43;-3.30;64.80
3198;DHT22;1611;49.394;11.136;2022-12-18T07:17:10;-3.30;64.70
3198;DHT22;1611;49.394;11.136;2022-12-18T07:19:37;-3.20;65.00
3198;DHT22;1611;49.394;11.136;2022-12-18T07:22:04;-3.20;65.30
3198;DHT22;1611;49.394;11.136;2022-12-18T07:24:32;-3.00;65.50
3198;DHT22;1611;49.394;11.136;2022-12-18T07:26:59;-3.10;65.30
3198;DHT22;1611;49.394;11.136;2022-12-18T07:29:26;-3.00;64.90
3198;DHT22;1611;49.394;11.136;2022-12-18T07:31:52;-2.90;65.10
3198;DHT22;1611;49.394;11.136;2022-12-18T07:34:19;-2.90;65.20
3198;DHT22;1611;49.394;11.136;2022-12-18T07:36:46;-2.90;65.20
3198;DHT22;1611;49.394;11.136;2022-12-18T07:39:13;-2.90;64.90
3198;DHT22;1611;49.394;11.136;2022-12-18T07:41:41;-2.90;65.00
3198;DHT22;1611;49.394;11.136;2022-12-18T07:44:11;-2.80;65.10
3198;DHT22;1611;49.394;11.136;2022-12-18T07:46:38;-2.80;65.00
3198;DHT22;1611;49.394;11.136;2022-12-18T07:49:05;-2.70;64.90
3198;DHT22;1611;49.394;11.136;2022-12-18T07:51:32;-2.60;64.60
3198;DHT22;1611;49.394;11.136;2022-12-18T07:53:59;-2.50;64.30
3198;DHT22;1611;49.394;11.136;2022-12-18T07:56:26;-2.50;63.90
3198;DHT22;1611;49.394;11.136;2022-12-18T07:58:54;-2.30;63.40
3198;DHT22;1611;49.394;11.136;2022-12-18T08:01:21;-2.30;62.90
3198;DHT22;1611;49.394;11.136;2022-12-18T08:03:48;-2.20;62.80
3198;DHT22;1611;49.394;11.136;2022-12-18T08:06:14;-2.10;62.20
3198;DHT22;1611;49.394;11.136;2022-12-18T08:08:41;-2.10;62.00
3198;DHT22;1611;49.394;11.136;2022-12-18T08:11:08;-2.10;61.80
3198;DHT22;1611;49.394;11.136;2022-12-18T08:13:35;-2.00;61.50
3198;DHT22;1611;49.394;11.136;2022-12-18T08:16:06;-2.00;61.60
3198;DHT22;1611;49.394;11.136;2022-12-18T08:18:34;-2.00;61.20
3198;DHT22;1611;49.394;11.136;2022-12-18T08:21:08;-2.00;60.80
3198;DHT22;1611;49.394;11.136;2022-12-18T08:23:35;-1.90;61.00
3198;DHT22;1611;49.394;11.136;2022-12-18T08:26:02;-1.80;61.00
3198;DHT22;1611;49.394;11.136;2022-12-18T08:28:29;-1.80;61.60
3198;DHT22;1611;49.394;11.136;2022-12-18T08:30:56;-1.80;61.10
3198;DHT22;1611;49.394;11.136;2022-12-18T08:33:24;-1.80;60.60
3198;DHT22;1611;49.394;11.136;2022-12-18T08:35:51;-1.80;60.40
3198;DHT22;1611;49.394;11.136;2022-12-18T08:38:19;-1.70;60.60
3198;DHT22;1611;49.394;11.136;2022-12-18T08:40:46;-1.60;60.60
3198;DHT22;1611;49.394;11.136;2022-12-18T08:43:12;-1.60;60.40
3198;DHT22;1611;49.394;11.136;2022-12-18T08:45:56;-1.70;59.70
3198;DHT22;1611;49.394;11.136;2022-12-18T08:48:25;-1.70;60.20
3198;DHT22;1611;49.394;11.136;2022-12-18T08:50:55;-1.50;60.60
3198;DHT22;1611;49.394;11.136;2022-12-18T08:53:22;-1.40;60.50
3198;DHT22;1611;49.394;11.136;2022-12-18T08:55:49;-1.40;59.50
3198;DHT22;1611;49.394;11.136;2022-12-18T08:58:16;-1.40;59.50
3198;DHT22;1611;49.394;11.136;2022-12-18T09:00:43;-1.40;59.50
3198;DHT22;1611;49.394;11.136;2022-12-18T09:03:11;-1.30;59.70
3198;DHT22;1611;49.394;11.136;2022-12-18T09:05:40;-1.20;59.30
3198;DHT22;1611;49.394;11.136;2022-12-18T09:08:07;-1.10;58.80
3198;DHT22;1611;49.394;11.136;2022-12-18T09:10:34;-1.10;58.40
3198;DHT22;1611;49.394;11.136;2022-12-18T09:13:00;-1.00;58.20
3198;DHT22;1611;49.394;11.136;2022-12-18T09:15:27;-1.00;58.70
3198;DHT22;1611;49.394;11.136;2022-12-18T09:17:54;-0.90;58.10
3198;DHT22;1611;49.394;11.136;2022-12-18T09:20:21;-1.00;57.10
3198;DHT22;1611;49.394;11.136;2022-12-18T09:22:49;-1.10;57.40
3198;DHT22;1611;49.394;11.136;2022-12-18T09:25:16;-1.10;57.30
3198;DHT22;1611;49.394;11.136;2022-12-18T09:27:42;-1.10;57.40
3198;DHT22;1611;49.394;11.136;2022-12-18T09:30:10;-1.10;57.80
3198;DHT22;1611;49.394;11.136;2022-12-18T09:32:37;-1.00;57.90
3198;DHT22;1611;49.394;11.136;2022-12-18T09:35:04;-0.90;57.80
3198;DHT22;1611;49.394;11.136;2022-12-18T09:37:31;-0.80;57.40
3198;DHT22;1611;49.394;11.136;2022-12-18T09:39:59;-0.70;56.60
3198;DHT22;1611;49.394;11.136;2022-12-18T09:42:26;-0.60;55.90
3198;DHT22;1611;49.394;11.136;2022-12-18T09:44:54;-0.60;55.70
3198;DHT22;1611;49.394;11.136;2022-12-18T09:47:23;-0.60;56.10
3198;DHT22;1611;49.394;11.136;2022-12-18T09:49:55;-0.60;55.80
3198;DHT22;1611;49.394;11.136;2022-12-18T09:52:26;-0.70;55.70
3198;DHT22;1611;49.394;11.136;2022-12-18T09:54:56;-0.70;55.60
3198;DHT22;1611;49.394;11.136;2022-12-18T09:57:30;-0.60;55.40
3198;DHT22;1611;49.394;11.136;2022-12-18T10:00:06;-0.70;55.00
3198;DHT22;1611;49.394;11.136;2022-12-18T10:02:35;-0.60;55.40
3198;DHT22;1611;49.394;11.136;2022-12-18T10:05:07;-0.60;54.90
3198;DHT22;1611;49.394;11.136;2022-12-18T10:07:47;-0.50;55.00
3198;DHT22;1611;49.394;11.136;2022-12-18T10:10:19;-0.40;54.40
3198;DHT22;1611;49.394;11.136;2022-12-18T10:12:56;-0.20;54.10
3198;DHT22;1611;49.394;11.136;2022-12-18T10:15:32;0.00;53.00
3198;DHT22;1611;49.394;11.136;2022-12-18T10:18:07;0.20;52.70
3198;DHT22;1611;49.394;11.136;2022-12-18T10:20:43;0.50;52.00
3198;DHT22;1611;49.394;11.136;2022-12-18T10:23:16;0.80;50.60
3198;DHT22;1611;49.394;11.136;2022-12-18T10:25:53;0.90;49.40
3198;DHT22;1611;49.394;11.136;2022-12-18T10:28:23;0.90;49.30
3198;DHT22;1611;49.394;11.136;2022-12-18T10:30:51;0.90;49.30
3198;DHT22;1611;49.394;11.136;2022-12-18T10:33:19;1.00;49.00
3198;DHT22;1611;49.394;11.136;2022-12-18T10:35:48;0.90;49.20
3198;DHT22;1611;49.394;11.136;2022-12-18T10:38:25;1.10;48.70
3198;DHT22;1611;49.394;11.136;2022-12-18T10:40:53;1.00;48.40
3198;DHT22;1611;49.394;11.136;2022-12-18T10:43:24;1.30;47.50
3198;DHT22;1611;49.394;11.136;2022-12-18T10:46:04;1.80;46.00
3198;DHT22;1611;49.394;11.136;2022-12-18T10:48:33;2.10;44.40
3198;DHT22;1611;49.394;11.136;2022-12-18T10:51:00;2.20;43.50
3198;DHT22;1611;49.394;11.136;2022-12-18T10:53:28;2.10;42.20
3198;DHT22;1611;49.394;11.136;2022-12-18T10:55:58;1.90;42.80
3198;DHT22;1611;49.394;11.136;2022-12-18T10:58:28;1.50;43.50
3198;DHT22;1611;49.394;11.136;2022-12-18T11:01:18;1.30;44.70
3198;DHT22;1611;49.394;11.136;2022-12-18T11:03:47;0.90;45.10
3198;DHT22;1611;49.394;11.136;2022-12-18T11:06:25;0.60;45.30
3198;DHT22;1611;49.394;11.136;2022-12-18T11:08:58;0.30;46.80
3198;DHT22;1611;49.394;11.136;2022-12-18T11:11:25;0.20;48.00
3198;DHT22;1611;49.394;11.136;2022-12-18T11:13:59;0.00;48.50
3198;DHT22;1611;49.394;11.136;2022-12-18T11:16:30;0.10;49.00
3198;DHT22;1611;49.394;11.136;2022-12-18T11:19:20;0.10;49.30
3198;DHT22;1611;49.394;11.136;2022-12-18T11:21:48;0.10;48.10
3198;DHT22;1611;49.394;11.136;2022-12-18T11:24:22;0.20;49.00
3198;DHT22;1611;49.394;11.136;2022-12-18T11:26:52;0.40;48.40
3198;DHT22;1611;49.394;11.136;2022-12-18T11:29:24;0.20;48.60
3198;DHT22;1611;49.394;11.136;2022-12-18T11:35:00;-0.10;49.10
3198;DHT22;1611;49.394;11.136;2022-12-18T11:37:29;-0.30;49.20
3198;DHT22;1611;49.394;11.136;2022-12-18T11:40:01;-0.40;49.90
3198;DHT22;1611;49.394;11.136;2022-12-18T11:42:34;-0.50;50.50
3198;DHT22;1611;49.394;11.136;2022-12-18T11:45:27;-0.70;51.20
3198;DHT22;1611;49.394;11.136;2022-12-18T11:47:58;-0.50;51.10
3198;DHT22;1611;49.394;11.136;2022-12-18T11:50:30;0.00;50.40
3198;DHT22;1611;49.394;11.136;2022-12-18T11:52:58;0.30;48.00
3198;DHT22;1611;49.394;11.136;2022-12-18T11:55:31;0.70;47.00
3198;DHT22;1611;49.394;11.136;2022-12-18T11:58:07;0.60;46.00
3198;DHT22;1611;49.394;11.136;2022-12-18T12:00:42;0.20;47.00
3198;DHT22;1611;49.394;11.136;2022-12-18T12:03:22;0.10;47.80
3198;DHT22;1611;49.394;11.136;2022-12-18T12:06:00;-0.20;48.70
3198;DHT22;1611;49.394;11.136;2022-12-18T12:08:38;-0.30;49.50
3198;DHT22;1611;49.394;11.136;2022-12-18T12:11:13;-0.30;49.40
3198;DHT22;1611;49.394;11.136;2022-12-18T12:13:48;-0.40;49.70
3198;DHT22;1611;49.394;11.136;2022-12-18T12:16:27;-0.50;50.30
3198;DHT22;1611;49.394;11.136;2022-12-18T12:19:05;-0.50;50.30
3198;DHT22;1611;49.394;11.136;2022-12-18T12:21:37;-0.50;50.70
3198;DHT22;1611;49.394;11.136;2022-12-18T12:24:14;-0.40;50.50
3198;DHT22;1611;49.394;11.136;2022-12-18T12:26:50;-0.20;50.00
3198;DHT22;1611;49.394;11.136;2022-12-18T12:29:28;-0.10;49.80
3198;DHT22;1611;49.394;11.136;2022-12-18T12:32:11;0.00;49.10
3198;DHT22;1611;49.394;11.136;2022-12-18T12:34:47;0.00;49.00
3198;DHT22;1611;49.394;11.136;2022-12-18T12:37:24;0.00;49.10
3198;DHT22;1611;49.394;11.136;2022-12-18T12:39:56;0.00;49.00
3198;DHT22;1611;49.394;11.136;2022-12-18T12:42:29;0.20;48.70
3198;DHT22;1611;49.394;11.136;2022-12-18T12:45:20;0.20;48.70
3198;DHT22;1611;49.394;11.136;2022-12-18T12:47:50;0.10;49.30
3198;DHT22;1611;49.394;11.136;2022-12-18T12:50:20;0.10;49.00
3198;DHT22;1611;49.394;11.136;2022-12-18T12:52:51;-0.10;49.40
3198;DHT22;1611;49.394;11.136;2022-12-18T12:55:21;0.00;49.60
3198;DHT22;1611;49.394;11.136;2022-12-18T12:57:54;0.00;49.30
3198;DHT22;1611;49.394;11.136;2022-12-18T13:00:24;0.20;49.20
3198;DHT22;1611;49.394;11.136;2022-12-18T13:03:03;-0.10;49.10
3198;DHT22;1611;49.394;11.136;2022-12-18T13:05:38;-0.10;50.00
3198;DHT22;1611;49.394;11.136;2022-12-18T13:08:08;-0.10;50.00
3198;DHT22;1611;49.394;11.136;2022-12-18T13:10:36;0.00;49.90
3198;DHT22;1611;49.394;11.136;2022-12-18T13:13:05;0.00;49.80
3198;DHT22;1611;49.394;11.136;2022-12-18T13:15:36;-0.10;49.50
3198;DHT22;1611;49.394;11.136;2022-12-18T13:20:49;-0.10;50.00
3198;DHT22;1611;49.394;11.136;2022-12-18T13:23:30;-0.10;50.20
3198;DHT22;1611;49.394;11.136;2022-12-18T13:25:58;-0.10;50.20
3198;DHT22;1611;49.394;11.136;2022-12-18T13:28:50;-0.10;50.90
3198;DHT22;1611;49.394;11.136;2022-12-18T13:31:58;-0.10;50.20
3198;DHT22;1611;49.394;11.136;2022-12-18T13:34:27;0.00;50.20
3198;DHT22;1611;49.394;11.136;2022-12-18T13:36:56;-0.10;50.00
3198;DHT22;1611;49.394;11.136;2022-12-18T13:39:44;-0.20;50.40
3198;DHT22;1611;49.394;11.136;2022-12-18T13:42:39;-0.10;50.80
3198;DHT22;1611;49.394;11.136;2022-12-18T13:45:42;-0.10;50.70
3198;DHT22;1611;49.394;11.136;2022-12-18T13:48:22;-0.10;51.10
3198;DHT22;1611;49.394;11.136;2022-12-18T13:50:53;-0.10;50.50
3198;DHT22;1611;49.394;11.136;2022-12-18T13:53:24;-0.10;50.70
3198;DHT22;1611;49.394;11.136;2022-12-18T13:55:54;-0.10;51.60
3198;DHT22;1611;49.394;11.136;2022-12-18T13:58:21;-0.20;51.70
3198;DHT22;1611;49.394;11.136;2022-12-18T14:00:47;-0.20;51.00
3198;DHT22;1611;49.394;11.136;2022-12-18T14:03:20;-0.10;51.00
3198;DHT22;1611;49.394;11.136;2022-12-18T14:05:56;-0.10;51.10
3198;DHT22;1611;49.394;11.136;2022-12-18T14:08:29;-0.10;51.10
3198;DHT22;1611;49.394;11.136;2022-12-18T14:11:00;-0.10;50.90
3198;DHT22;1611;49.394;11.136;2022-12-18T14:13:31;-0.20;51.10
3198;DHT22;1611;49.394;11.136;2022-12-18T14:16:00;-0.30;51.10
3198;DHT22;1611;49.394;11.136;2022-12-18T14:18:33;-0.30;51.50
3198;DHT22;1611;49.394;11.136;2022-12-18T14:21:02;-0.30;51.90
3198;DHT22;1611;49.394;11.136;2022-12-18T14:23:32;-0.30;52.20
3198;DHT22;1611;49.394;11.136;2022-12-18T14:26:01;-0.40;51.60
3198;DHT22;1611;49.394;11.136;2022-12-18T14:28:28;-0.40;51.70
3198;DHT22;1611;49.394;11.136;2022-12-18T14:30:55;-0.50;52.10
3198;DHT22;1611;49.394;11.136;2022-12-18T14:33:25;-0.50;52.70
3198;DHT22;1611;49.394;11.136;2022-12-18T14:35:54;-0.60;52.90
3198;DHT22;1611;49.394;11.136;2022-12-18T14:38:24;-0.60;53.00
3198;DHT22;1611;49.394;11.136;2022-12-18T14:40:53;-0.70;53.10
3198;DHT22;1611;49.394;11.136;2022-12-18T14:43:21;-0.80;53.20
3198;DHT22;1611;49.394;11.136;2022-12-18T14:45:49;-0.80;53.50
3198;DHT22;1611;49.394;11.136;2022-12-18T14:48:18;-0.90;53.90
3198;DHT22;1611;49.394;11.136;2022-12-18T14:50:54;-1.00;54.50
3198;DHT22;1611;49.394;11.136;2022-12-18T14:53:25;-1.00;54.70
3198;DHT22;1611;49.394;11.136;2022-12-18T14:55:53;-1.20;54.60
3198;DHT22;1611;49.394;11.136;2022-12-18T14:58:21;-1.30;54.90
3198;DHT22;1611;49.394;11.136;2022-12-18T15:00:48;-1.40;55.10
3198;DHT22;1611;49.394;11.136;2022-12-18T15:03:18;-1.50;55.40
3198;DHT22;1611;49.394;11.136;2022-12-18T15:05:45;-1.60;55.80
3198;DHT22;1611;49.394;11.136;2022-12-18T15:08:34;-1.60;56.20
3198;DHT22;1611;49.394;11.136;2022-12-18T15:11:01;-1.80;56.90
3198;DHT22;1611;49.394;11.136;2022-12-18T15:13:29;-1.90;57.50
3198;DHT22;1611;49.394;11.136;2022-12-18T15:15:57;-1.90;57.70
3198;DHT22;1611;49.394;11.136;2022-12-18T15:18:31;-2.10;58.30
3198;DHT22;1611;49.394;11.136;2022-12-18T15:21:06;-2.10;58.80
3198;DHT22;1611;49.394;11.136;2022-12-18T15:23:36;-2.20;58.70
3198;DHT22;1611;49.394;11.136;2022-12-18T15:26:05;-2.20;59.90
3198;DHT22;1611;49.394;11.136;2022-12-18T15:28:36;-2.30;59.30
3198;DHT22;1611;49.394;11.136;2022-12-18T15:31:06;-2.40;59.50
3198;DHT22;1611;49.394;11.136;2022-12-18T15:33:35;-2.40;59.70
3198;DHT22;1611;49.394;11.136;2022-12-18T15:36:04;-2.50;60.00
3198;DHT22;1611;49.394;11.136;2022-12-18T15:38:31;-2.50;60.00
3198;DHT22;1611;49.394;11.136;2022-12-18T15:40:58;-2.60;60.20
3198;DHT22;1611;49.394;11.136;2022-12-18T15:43:27;-2.60;60.20
3198;DHT22;1611;49.394;11.136;2022-12-18T15:46:01;-2.60;60.20
3198;DHT22;1611;49.394;11.136;2022-12-18T15:48:28;-2.60;60.60
3198;DHT22;1611;49.394;11.136;2022-12-18T15:50:56;-2.70;60.70
3198;DHT22;1611;49.394;11.136;2022-12-18T15:53:25;-2.70;60.60
3198;DHT22;1611;49.394;11.136;2022-12-18T15:55:53;-2.70;60.60
3198;DHT22;1611;49.394;11.136;2022-12-18T15:58:38;-2.70;60.60
3198;DHT22;1611;49.394;11.136;2022-12-18T16:01:08;-2.70;60.70
3198;DHT22;1611;49.394;11.136;2022-12-18T16:03:35;-2.70;60.60
3198;DHT22;1611;49.394;11.136;2022-12-18T16:06:02;-2.70;60.70
3198;DHT22;1611;49.394;11.136;2022-12-18T16:08:29;-2.80;60.40
3198;DHT22;1611;49.394;11.136;2022-12-18T16:10:56;-2.80;60.70